CheckWX is a tool to help pilots better visualize weather data.  It is not intended as a substitute for an official pre-flight weather briefing.

12:22:32 UTC

0R0 METAR
Columbia-Marion County Airport
Columbia, Mississippi, USA
Current

28 mins ago

K0R0 181155Z AUTO 01009KT 340V040 10SM BKN050 OVC060 08/04 A3018 RMK AO2
Observed
Feb-18 @ 11:55 UTC
Wind
  • 010° at 9 KTS
Visibility
10 SM
Flight Rules
VFR
Cloud Levels
  • Broken at 5,000' AGL
  • Overcast at 6,000' AGL
Temperature
C / 46°F
Dewpoint
C / 39°F
Humidity
76%
Altimeter
30.18" Hg
Pressure
1022.02 hPa
Previous

48 mins ago

K0R0 181135Z AUTO 35008G14KT 10SM BKN046 OVC055 09/05 A3017 RMK AO2
Observed
Feb-18 @ 11:35 UTC
Wind
  • 350° at 8 KTS
  • Gusting to 14 KTS
Visibility
10 SM
Flight Rules
VFR
Cloud Levels
  • Broken at 4,600' AGL
  • Overcast at 5,500' AGL
Temperature
C / 48°F
Dewpoint
C / 41°F
Humidity
76%
Altimeter
30.17" Hg
Pressure
1021.72 hPa
Previous

1 hour ago

K0R0 181115Z AUTO 35007KT 10SM OVC043 09/05 A3016 RMK AO2
Observed
Feb-18 @ 11:15 UTC
Wind
  • 350° at 7 KTS
Visibility
10 SM
Flight Rules
VFR
Cloud Levels
  • Overcast at 4,300' AGL
Temperature
C / 48°F
Dewpoint
C / 41°F
Humidity
76%
Altimeter
30.16" Hg
Pressure
1021.32 hPa